sensor_id;sensor_type;location;lat;lon;timestamp;P1;durP1;ratioP1;P2;durP2;ratioP2
24739;SDS011;45234;48.148;17.128;2022-07-29T00:00:59;10.98;;;9.50;;
24739;SDS011;45234;48.148;17.128;2022-07-29T00:03:28;10.27;;;9.05;;
24739;SDS011;45234;48.148;17.128;2022-07-29T00:05:55;10.30;;;9.20;;
24739;SDS011;45234;48.148;17.128;2022-07-29T00:08:23;9.43;;;8.32;;
24739;SDS011;45234;48.148;17.128;2022-07-29T00:10:50;13.30;;;9.20;;
24739;SDS011;45234;48.148;17.128;2022-07-29T00:13:17;10.32;;;8.40;;
24739;SDS011;45234;48.148;17.128;2022-07-29T00:15:58;10.02;;;8.77;;
24739;SDS011;45234;48.148;17.128;2022-07-29T00:18:29;12.18;;;9.05;;
24739;SDS011;45234;48.148;17.128;2022-07-29T00:20:58;12.15;;;8.20;;
24739;SDS011;45234;48.148;17.128;2022-07-29T00:23:25;9.55;;;7.93;;
24739;SDS011;45234;48.148;17.128;2022-07-29T00:25:52;9.52;;;7.15;;
24739;SDS011;45234;48.148;17.128;2022-07-29T00:28:19;10.50;;;6.90;;
24739;SDS011;45234;48.148;17.128;2022-07-29T00:30:47;11.10;;;7.45;;
24739;SDS011;45234;48.148;17.128;2022-07-29T00:33:13;7.45;;;6.75;;
24739;SDS011;45234;48.148;17.128;2022-07-29T00:35:41;9.55;;;7.60;;
24739;SDS011;45234;48.148;17.128;2022-07-29T00:38:15;8.20;;;7.13;;
24739;SDS011;45234;48.148;17.128;2022-07-29T00:40:44;8.02;;;7.13;;
24739;SDS011;45234;48.148;17.128;2022-07-29T00:43:12;8.77;;;7.28;;
24739;SDS011;45234;48.148;17.128;2022-07-29T00:45:46;8.88;;;8.05;;
24739;SDS011;45234;48.148;17.128;2022-07-29T00:48:21;9.25;;;8.20;;
24739;SDS011;45234;48.148;17.128;2022-07-29T00:50:49;10.43;;;9.15;;
24739;SDS011;45234;48.148;17.128;2022-07-29T00:53:18;10.30;;;9.25;;
24739;SDS011;45234;48.148;17.128;2022-07-29T00:55:47;10.18;;;8.57;;
24739;SDS011;45234;48.148;17.128;2022-07-29T00:58:17;10.45;;;9.45;;
24739;SDS011;45234;48.148;17.128;2022-07-29T01:00:44;10.57;;;9.32;;
24739;SDS011;45234;48.148;17.128;2022-07-29T01:03:11;10.20;;;8.73;;
24739;SDS011;45234;48.148;17.128;2022-07-29T01:05:38;9.52;;;8.48;;
24739;SDS011;45234;48.148;17.128;2022-07-29T01:08:17;10.77;;;8.25;;
24739;SDS011;45234;48.148;17.128;2022-07-29T01:10:44;9.98;;;8.25;;
24739;SDS011;45234;48.148;17.128;2022-07-29T01:13:13;9.38;;;7.30;;
24739;SDS011;45234;48.148;17.128;2022-07-29T01:15:43;11.38;;;6.88;;
24739;SDS011;45234;48.148;17.128;2022-07-29T01:18:31;14.07;;;6.50;;
24739;SDS011;45234;48.148;17.128;2022-07-29T01:29:58;9.50;;;6.85;;
24739;SDS011;45234;48.148;17.128;2022-07-29T01:32:31;8.02;;;6.35;;
24739;SDS011;45234;48.148;17.128;2022-07-29T01:35:03;9.30;;;6.55;;
24739;SDS011;45234;48.148;17.128;2022-07-29T01:37:39;8.82;;;5.95;;
24739;SDS011;45234;48.148;17.128;2022-07-29T01:40:19;11.73;;;6.78;;
24739;SDS011;45234;48.148;17.128;2022-07-29T01:42:54;7.72;;;6.88;;
24739;SDS011;45234;48.148;17.128;2022-07-29T01:45:36;8.30;;;6.93;;
24739;SDS011;45234;48.148;17.128;2022-07-29T01:48:23;6.97;;;6.28;;
24739;SDS011;45234;48.148;17.128;2022-07-29T01:53:47;9.27;;;5.90;;
24739;SDS011;45234;48.148;17.128;2022-07-29T01:56:25;6.22;;;5.63;;
24739;SDS011;45234;48.148;17.128;2022-07-29T01:58:57;10.18;;;7.13;;
24739;SDS011;45234;48.148;17.128;2022-07-29T02:01:26;8.73;;;6.53;;
24739;SDS011;45234;48.148;17.128;2022-07-29T02:03:55;8.10;;;6.40;;
24739;SDS011;45234;48.148;17.128;2022-07-29T02:06:25;7.38;;;6.68;;
24739;SDS011;45234;48.148;17.128;2022-07-29T02:08:53;6.95;;;6.07;;
24739;SDS011;45234;48.148;17.128;2022-07-29T02:11:22;9.15;;;5.70;;
24739;SDS011;45234;48.148;17.128;2022-07-29T02:13:50;9.02;;;6.65;;
24739;SDS011;45234;48.148;17.128;2022-07-29T02:16:21;12.57;;;6.57;;
24739;SDS011;45234;48.148;17.128;2022-07-29T02:18:51;7.25;;;6.00;;
24739;SDS011;45234;48.148;17.128;2022-07-29T02:21:23;9.38;;;8.00;;
24739;SDS011;45234;48.148;17.128;2022-07-29T02:23:53;9.23;;;7.78;;
24739;SDS011;45234;48.148;17.128;2022-07-29T02:26:23;8.60;;;7.70;;
24739;SDS011;45234;48.148;17.128;2022-07-29T02:28:54;10.15;;;8.73;;
24739;SDS011;45234;48.148;17.128;2022-07-29T02:31:24;9.52;;;8.48;;
24739;SDS011;45234;48.148;17.128;2022-07-29T02:34:00;10.45;;;9.35;;
24739;SDS011;45234;48.148;17.128;2022-07-29T02:36:30;12.27;;;11.05;;
24739;SDS011;45234;48.148;17.128;2022-07-29T02:38:59;11.52;;;10.05;;
24739;SDS011;45234;48.148;17.128;2022-07-29T02:44:27;12.00;;;10.73;;
24739;SDS011;45234;48.148;17.128;2022-07-29T02:50:08;12.52;;;9.50;;
24739;SDS011;45234;48.148;17.128;2022-07-29T02:52:45;11.63;;;9.48;;
24739;SDS011;45234;48.148;17.128;2022-07-29T02:55:26;12.15;;;10.88;;
24739;SDS011;45234;48.148;17.128;2022-07-29T03:01:08;9.32;;;8.40;;
24739;SDS011;45234;48.148;17.128;2022-07-29T03:03:46;10.20;;;9.20;;
24739;SDS011;45234;48.148;17.128;2022-07-29T03:06:17;11.27;;;8.75;;
24739;SDS011;45234;48.148;17.128;2022-07-29T03:09:04;9.20;;;8.40;;
24739;SDS011;45234;48.148;17.128;2022-07-29T03:11:38;8.52;;;7.60;;
24739;SDS011;45234;48.148;17.128;2022-07-29T03:14:18;9.90;;;7.22;;
24739;SDS011;45234;48.148;17.128;2022-07-29T03:16:46;8.65;;;7.30;;
24739;SDS011;45234;48.148;17.128;2022-07-29T03:19:14;8.57;;;6.28;;
24739;SDS011;45234;48.148;17.128;2022-07-29T03:21:42;7.55;;;6.72;;
24739;SDS011;45234;48.148;17.128;2022-07-29T03:24:09;8.27;;;7.07;;
24739;SDS011;45234;48.148;17.128;2022-07-29T03:26:36;11.68;;;5.72;;
24739;SDS011;45234;48.148;17.128;2022-07-29T03:29:03;6.70;;;6.00;;
24739;SDS011;45234;48.148;17.128;2022-07-29T03:31:31;9.98;;;5.97;;
24739;SDS011;45234;48.148;17.128;2022-07-29T03:33:59;6.30;;;5.25;;
24739;SDS011;45234;48.148;17.128;2022-07-29T03:36:26;5.70;;;5.20;;
24739;SDS011;45234;48.148;17.128;2022-07-29T03:38:53;6.68;;;5.38;;
24739;SDS011;45234;48.148;17.128;2022-07-29T03:41:20;7.97;;;5.35;;
24739;SDS011;45234;48.148;17.128;2022-07-29T03:43:50;6.13;;;4.90;;
24739;SDS011;45234;48.148;17.128;2022-07-29T03:46:20;6.28;;;4.97;;
24739;SDS011;45234;48.148;17.128;2022-07-29T03:48:50;5.95;;;5.35;;
24739;SDS011;45234;48.148;17.128;2022-07-29T03:51:23;6.68;;;5.30;;
24739;SDS011;45234;48.148;17.128;2022-07-29T03:53:58;6.22;;;5.07;;
24739;SDS011;45234;48.148;17.128;2022-07-29T03:56:42;5.70;;;4.95;;
24739;SDS011;45234;48.148;17.128;2022-07-29T03:59:13;5.43;;;4.93;;
24739;SDS011;45234;48.148;17.128;2022-07-29T04:01:42;10.10;;;5.25;;
24739;SDS011;45234;48.148;17.128;2022-07-29T04:04:10;8.60;;;4.90;;
24739;SDS011;45234;48.148;17.128;2022-07-29T04:06:39;5.60;;;4.63;;
24739;SDS011;45234;48.148;17.128;2022-07-29T04:09:07;8.00;;;5.30;;
24739;SDS011;45234;48.148;17.128;2022-07-29T04:11:35;8.05;;;4.95;;
24739;SDS011;45234;48.148;17.128;2022-07-29T04:14:24;5.95;;;4.90;;
24739;SDS011;45234;48.148;17.128;2022-07-29T04:16:51;5.80;;;4.85;;
24739;SDS011;45234;48.148;17.128;2022-07-29T04:19:18;5.85;;;5.22;;
24739;SDS011;45234;48.148;17.128;2022-07-29T04:21:47;5.57;;;5.05;;
24739;SDS011;45234;48.148;17.128;2022-07-29T04:24:14;8.85;;;5.13;;
24739;SDS011;45234;48.148;17.128;2022-07-29T04:26:42;5.75;;;5.25;;
24739;SDS011;45234;48.148;17.128;2022-07-29T04:29:11;7.13;;;5.32;;
24739;SDS011;45234;48.148;17.128;2022-07-29T04:31:42;6.95;;;4.90;;
24739;SDS011;45234;48.148;17.128;2022-07-29T04:34:10;5.95;;;5.38;;
24739;SDS011;45234;48.148;17.128;2022-07-29T04:36:39;6.97;;;5.13;;
24739;SDS011;45234;48.148;17.128;2022-07-29T04:39:06;7.13;;;5.07;;
24739;SDS011;45234;48.148;17.128;2022-07-29T04:41:33;7.10;;;5.00;;
24739;SDS011;45234;48.148;17.128;2022-07-29T04:44:00;8.13;;;5.28;;
24739;SDS011;45234;48.148;17.128;2022-07-29T04:46:37;5.63;;;4.90;;
24739;SDS011;45234;48.148;17.128;2022-07-29T04:49:04;6.00;;;5.00;;
24739;SDS011;45234;48.148;17.128;2022-07-29T04:51:32;5.45;;;4.88;;
24739;SDS011;45234;48.148;17.128;2022-07-29T04:54:03;7.25;;;4.80;;
24739;SDS011;45234;48.148;17.128;2022-07-29T04:56:30;5.47;;;4.82;;
24739;SDS011;45234;48.148;17.128;2022-07-29T04:59:01;6.38;;;5.03;;
24739;SDS011;45234;48.148;17.128;2022-07-29T05:01:33;5.23;;;4.60;;
24739;SDS011;45234;48.148;17.128;2022-07-29T05:04:01;8.20;;;5.00;;
24739;SDS011;45234;48.148;17.128;2022-07-29T05:06:29;9.20;;;4.80;;
24739;SDS011;45234;48.148;17.128;2022-07-29T05:08:56;5.32;;;4.43;;
24739;SDS011;45234;48.148;17.128;2022-07-29T05:11:23;6.10;;;4.80;;
24739;SDS011;45234;48.148;17.128;2022-07-29T05:13:55;7.32;;;5.45;;
24739;SDS011;45234;48.148;17.128;2022-07-29T05:16:22;5.95;;;4.70;;
24739;SDS011;45234;48.148;17.128;2022-07-29T05:18:49;6.00;;;4.95;;
24739;SDS011;45234;48.148;17.128;2022-07-29T05:21:16;8.73;;;5.20;;
24739;SDS011;45234;48.148;17.128;2022-07-29T05:23:44;6.03;;;5.03;;
24739;SDS011;45234;48.148;17.128;2022-07-29T05:26:11;5.82;;;4.63;;
24739;SDS011;45234;48.148;17.128;2022-07-29T05:28:37;5.60;;;4.47;;
24739;SDS011;45234;48.148;17.128;2022-07-29T05:31:05;6.50;;;4.70;;
24739;SDS011;45234;48.148;17.128;2022-07-29T05:33:32;4.90;;;4.50;;
24739;SDS011;45234;48.148;17.128;2022-07-29T05:36:05;5.78;;;4.22;;
24739;SDS011;45234;48.148;17.128;2022-07-29T05:38:34;6.72;;;4.00;;
24739;SDS011;45234;48.148;17.128;2022-07-29T05:41:02;7.00;;;4.72;;
24739;SDS011;45234;48.148;17.128;2022-07-29T05:43:31;5.75;;;4.40;;
24739;SDS011;45234;48.148;17.128;2022-07-29T05:45:59;5.50;;;4.38;;
24739;SDS011;45234;48.148;17.128;2022-07-29T05:48:26;6.43;;;4.40;;
24739;SDS011;45234;48.148;17.128;2022-07-29T05:50:55;7.03;;;4.90;;
24739;SDS011;45234;48.148;17.128;2022-07-29T05:53:25;7.95;;;5.10;;
24739;SDS011;45234;48.148;17.128;2022-07-29T05:55:54;7.75;;;4.75;;
24739;SDS011;45234;48.148;17.128;2022-07-29T05:58:24;6.30;;;4.30;;
24739;SDS011;45234;48.148;17.128;2022-07-29T06:00:51;6.05;;;4.82;;
24739;SDS011;45234;48.148;17.128;2022-07-29T06:03:18;9.68;;;4.80;;
24739;SDS011;45234;48.148;17.128;2022-07-29T06:05:46;10.52;;;4.97;;
24739;SDS011;45234;48.148;17.128;2022-07-29T06:08:14;6.43;;;4.68;;
24739;SDS011;45234;48.148;17.128;2022-07-29T06:10:41;9.20;;;4.70;;
24739;SDS011;45234;48.148;17.128;2022-07-29T06:13:08;10.65;;;5.50;;
24739;SDS011;45234;48.148;17.128;2022-07-29T06:15:36;6.13;;;5.18;;
24739;SDS011;45234;48.148;17.128;2022-07-29T06:18:03;5.72;;;5.22;;
24739;SDS011;45234;48.148;17.128;2022-07-29T06:20:36;6.32;;;4.32;;
24739;SDS011;45234;48.148;17.128;2022-07-29T06:23:03;8.48;;;4.68;;
24739;SDS011;45234;48.148;17.128;2022-07-29T06:25:31;7.25;;;5.43;;
24739;SDS011;45234;48.148;17.128;2022-07-29T06:28:02;12.95;;;5.30;;
24739;SDS011;45234;48.148;17.128;2022-07-29T06:30:30;6.88;;;4.53;;
24739;SDS011;45234;48.148;17.128;2022-07-29T06:32:57;7.20;;;4.60;;
24739;SDS011;45234;48.148;17.128;2022-07-29T06:35:26;5.80;;;5.28;;
24739;SDS011;45234;48.148;17.128;2022-07-29T06:38:08;9.32;;;5.25;;
24739;SDS011;45234;48.148;17.128;2022-07-29T06:40:56;5.50;;;4.80;;
24739;SDS011;45234;48.148;17.128;2022-07-29T06:43:34;5.80;;;4.57;;
24739;SDS011;45234;48.148;17.128;2022-07-29T06:46:17;6.05;;;5.45;;
24739;SDS011;45234;48.148;17.128;2022-07-29T06:48:47;9.52;;;4.90;;
24739;SDS011;45234;48.148;17.128;2022-07-29T06:51:14;5.45;;;4.93;;
24739;SDS011;45234;48.148;17.128;2022-07-29T06:53:49;9.07;;;5.03;;
24739;SDS011;45234;48.148;17.128;2022-07-29T06:56:37;6.70;;;4.47;;
24739;SDS011;45234;48.148;17.128;2022-07-29T06:59:08;6.05;;;5.25;;
24739;SDS011;45234;48.148;17.128;2022-07-29T07:01:36;12.18;;;5.18;;
24739;SDS011;45234;48.148;17.128;2022-07-29T07:04:04;5.25;;;4.57;;
24739;SDS011;45234;48.148;17.128;2022-07-29T07:06:35;9.18;;;4.65;;
24739;SDS011;45234;48.148;17.128;2022-07-29T07:09:06;6.43;;;4.55;;
24739;SDS011;45234;48.148;17.128;2022-07-29T07:11:33;4.75;;;4.30;;
24739;SDS011;45234;48.148;17.128;2022-07-29T07:14:01;7.20;;;5.88;;
24739;SDS011;45234;48.148;17.128;2022-07-29T07:16:29;6.70;;;5.03;;
24739;SDS011;45234;48.148;17.128;2022-07-29T07:18:57;7.38;;;5.88;;
24739;SDS011;45234;48.148;17.128;2022-07-29T07:21:24;7.50;;;5.65;;
24739;SDS011;45234;48.148;17.128;2022-07-29T07:23:55;6.40;;;5.45;;
24739;SDS011;45234;48.148;17.128;2022-07-29T07:26:22;6.95;;;5.25;;
24739;SDS011;45234;48.148;17.128;2022-07-29T07:28:50;8.93;;;5.13;;
24739;SDS011;45234;48.148;17.128;2022-07-29T07:31:17;9.07;;;5.47;;
24739;SDS011;45234;48.148;17.128;2022-07-29T07:33:45;10.18;;;5.45;;
24739;SDS011;45234;48.148;17.128;2022-07-29T07:36:12;7.88;;;5.15;;
24739;SDS011;45234;48.148;17.128;2022-07-29T07:38:39;9.73;;;4.80;;
24739;SDS011;45234;48.148;17.128;2022-07-29T07:41:06;6.78;;;5.40;;
24739;SDS011;45234;48.148;17.128;2022-07-29T07:43:34;8.90;;;4.70;;
24739;SDS011;45234;48.148;17.128;2022-07-29T07:46:01;9.50;;;5.28;;
24739;SDS011;45234;48.148;17.128;2022-07-29T07:48:28;7.10;;;5.68;;
24739;SDS011;45234;48.148;17.128;2022-07-29T07:50:56;6.20;;;5.60;;
24739;SDS011;45234;48.148;17.128;2022-07-29T07:53:24;6.28;;;5.50;;
24739;SDS011;45234;48.148;17.128;2022-07-29T07:55:52;5.43;;;5.00;;
24739;SDS011;45234;48.148;17.128;2022-07-29T07:58:39;8.27;;;5.00;;
24739;SDS011;45234;48.148;17.128;2022-07-29T08:01:07;6.82;;;4.40;;
24739;SDS011;45234;48.148;17.128;2022-07-29T08:03:35;9.80;;;4.90;;
24739;SDS011;45234;48.148;17.128;2022-07-29T08:06:03;6.68;;;4.85;;
24739;SDS011;45234;48.148;17.128;2022-07-29T08:08:31;6.93;;;4.53;;
24739;SDS011;45234;48.148;17.128;2022-07-29T08:10:58;6.22;;;4.93;;
24739;SDS011;45234;48.148;17.128;2022-07-29T08:13:34;8.27;;;4.70;;
24739;SDS011;45234;48.148;17.128;2022-07-29T08:16:02;8.02;;;4.72;;
24739;SDS011;45234;48.148;17.128;2022-07-29T08:18:42;5.30;;;4.80;;
24739;SDS011;45234;48.148;17.128;2022-07-29T08:21:11;6.47;;;4.45;;
24739;SDS011;45234;48.148;17.128;2022-07-29T08:23:42;6.15;;;5.10;;
24739;SDS011;45234;48.148;17.128;2022-07-29T08:26:25;7.13;;;4.88;;
24739;SDS011;45234;48.148;17.128;2022-07-29T08:29:09;8.77;;;4.55;;
24739;SDS011;45234;48.148;17.128;2022-07-29T08:31:36;6.88;;;4.50;;
24739;SDS011;45234;48.148;17.128;2022-07-29T08:34:06;7.43;;;4.93;;
24739;SDS011;45234;48.148;17.128;2022-07-29T08:36:39;6.57;;;4.68;;
24739;SDS011;45234;48.148;17.128;2022-07-29T08:39:09;7.72;;;4.22;;
24739;SDS011;45234;48.148;17.128;2022-07-29T08:41:38;5.13;;;4.10;;
24739;SDS011;45234;48.148;17.128;2022-07-29T08:44:22;6.57;;;5.22;;
24739;SDS011;45234;48.148;17.128;2022-07-29T08:46:56;5.65;;;4.40;;
24739;SDS011;45234;48.148;17.128;2022-07-29T08:49:26;5.70;;;4.97;;
24739;SDS011;45234;48.148;17.128;2022-07-29T08:51:53;7.60;;;5.28;;
24739;SDS011;45234;48.148;17.128;2022-07-29T08:54:23;9.70;;;5.15;;
24739;SDS011;45234;48.148;17.128;2022-07-29T08:56:52;12.25;;;4.95;;
24739;SDS011;45234;48.148;17.128;2022-07-29T08:59:22;7.10;;;5.03;;
24739;SDS011;45234;48.148;17.128;2022-07-29T09:01:56;7.63;;;4.88;;
24739;SDS011;45234;48.148;17.128;2022-07-29T09:04:32;6.50;;;4.82;;
24739;SDS011;45234;48.148;17.128;2022-07-29T09:07:03;4.90;;;4.38;;
24739;SDS011;45234;48.148;17.128;2022-07-29T09:09:32;8.90;;;4.97;;
24739;SDS011;45234;48.148;17.128;2022-07-29T09:12:00;8.30;;;4.97;;
24739;SDS011;45234;48.148;17.128;2022-07-29T09:14:31;7.75;;;4.65;;
24739;SDS011;45234;48.148;17.128;2022-07-29T09:16:58;5.38;;;4.78;;
24739;SDS011;45234;48.148;17.128;2022-07-29T09:19:30;6.32;;;4.55;;
24739;SDS011;45234;48.148;17.128;2022-07-29T09:24:54;5.85;;;4.45;;
24739;SDS011;45234;48.148;17.128;2022-07-29T09:27:22;8.98;;;4.43;;
24739;SDS011;45234;48.148;17.128;2022-07-29T09:29:59;7.05;;;4.72;;
24739;SDS011;45234;48.148;17.128;2022-07-29T09:32:29;8.32;;;3.92;;
24739;SDS011;45234;48.148;17.128;2022-07-29T09:37:51;6.18;;;4.45;;
24739;SDS011;45234;48.148;17.128;2022-07-29T09:40:20;5.38;;;4.20;;
24739;SDS011;45234;48.148;17.128;2022-07-29T09:42:50;6.78;;;4.35;;
24739;SDS011;45234;48.148;17.128;2022-07-29T09:45:34;5.22;;;4.28;;
24739;SDS011;45234;48.148;17.128;2022-07-29T09:48:14;4.80;;;4.40;;
24739;SDS011;45234;48.148;17.128;2022-07-29T09:50:45;7.97;;;3.72;;
24739;SDS011;45234;48.148;17.128;2022-07-29T09:56:00;5.00;;;3.95;;
24739;SDS011;45234;48.148;17.128;2022-07-29T09:58:28;4.97;;;3.80;;
24739;SDS011;45234;48.148;17.128;2022-07-29T10:00:57;5.35;;;3.92;;
24739;SDS011;45234;48.148;17.128;2022-07-29T10:03:25;7.45;;;3.50;;
24739;SDS011;45234;48.148;17.128;2022-07-29T10:06:09;4.85;;;3.60;;
24739;SDS011;45234;48.148;17.128;2022-07-29T10:08:40;4.55;;;3.65;;
24739;SDS011;45234;48.148;17.128;2022-07-29T10:11:12;4.93;;;3.90;;
24739;SDS011;45234;48.148;17.128;2022-07-29T10:13:42;3.85;;;3.55;;
24739;SDS011;45234;48.148;17.128;2022-07-29T10:16:14;4.75;;;4.07;;
24739;SDS011;45234;48.148;17.128;2022-07-29T10:18:42;6.18;;;3.72;;
24739;SDS011;45234;48.148;17.128;2022-07-29T10:21:10;7.68;;;4.30;;
24739;SDS011;45234;48.148;17.128;2022-07-29T10:23:58;5.05;;;3.80;;
24739;SDS011;45234;48.148;17.128;2022-07-29T10:26:28;5.80;;;4.03;;
24739;SDS011;45234;48.148;17.128;2022-07-29T10:28:59;4.18;;;3.70;;
24739;SDS011;45234;48.148;17.128;2022-07-29T10:31:29;3.72;;;3.42;;
24739;SDS011;45234;48.148;17.128;2022-07-29T10:42:54;5.60;;;4.28;;
24739;SDS011;45234;48.148;17.128;2022-07-29T10:45:27;8.80;;;4.05;;
24739;SDS011;45234;48.148;17.128;2022-07-29T10:48:03;10.13;;;4.13;;
24739;SDS011;45234;48.148;17.128;2022-07-29T10:56:22;5.28;;;3.95;;
24739;SDS011;45234;48.148;17.128;2022-07-29T11:01:48;7.43;;;3.83;;
24739;SDS011;45234;48.148;17.128;2022-07-29T11:07:15;9.68;;;4.05;;
24739;SDS011;45234;48.148;17.128;2022-07-29T11:09:43;8.25;;;4.40;;
24739;SDS011;45234;48.148;17.128;2022-07-29T11:15:06;6.95;;;4.65;;
24739;SDS011;45234;48.148;17.128;2022-07-29T11:23:26;8.80;;;4.05;;
24739;SDS011;45234;48.148;17.128;2022-07-29T11:29:02;6.43;;;4.60;;
24739;SDS011;45234;48.148;17.128;2022-07-29T11:31:49;6.50;;;3.88;;
24739;SDS011;45234;48.148;17.128;2022-07-29T11:34:30;6.65;;;3.40;;
24739;SDS011;45234;48.148;17.128;2022-07-29T11:45:04;5.15;;;3.58;;
24739;SDS011;45234;48.148;17.128;2022-07-29T11:50:55;4.57;;;3.92;;
24739;SDS011;45234;48.148;17.128;2022-07-29T11:53:23;7.38;;;4.20;;
24739;SDS011;45234;48.148;17.128;2022-07-29T11:55:59;4.55;;;3.92;;
24739;SDS011;45234;48.148;17.128;2022-07-29T11:58:28;5.75;;;4.07;;
24739;SDS011;45234;48.148;17.128;2022-07-29T12:01:00;6.47;;;4.38;;
24739;SDS011;45234;48.148;17.128;2022-07-29T12:03:49;6.88;;;4.00;;
24739;SDS011;45234;48.148;17.128;2022-07-29T12:06:36;5.57;;;3.80;;
24739;SDS011;45234;48.148;17.128;2022-07-29T12:09:07;7.13;;;3.97;;
24739;SDS011;45234;48.148;17.128;2022-07-29T12:11:39;10.18;;;3.92;;
24739;SDS011;45234;48.148;17.128;2022-07-29T12:14:23;9.80;;;3.58;;
24739;SDS011;45234;48.148;17.128;2022-07-29T12:19:20;7.30;;;4.10;;
24739;SDS011;45234;48.148;17.128;2022-07-29T12:22:02;10.77;;;3.88;;
24739;SDS011;45234;48.148;17.128;2022-07-29T12:24:42;6.03;;;3.65;;
24739;SDS011;45234;48.148;17.128;2022-07-29T12:27:10;7.13;;;4.10;;
24739;SDS011;45234;48.148;17.128;2022-07-29T12:29:43;4.25;;;3.63;;
24739;SDS011;45234;48.148;17.128;2022-07-29T12:32:14;6.72;;;3.65;;
24739;SDS011;45234;48.148;17.128;2022-07-29T12:34:44;5.00;;;3.58;;
24739;SDS011;45234;48.148;17.128;2022-07-29T12:37:14;4.07;;;3.67;;
24739;SDS011;45234;48.148;17.128;2022-07-29T12:39:56;4.65;;;3.80;;
24739;SDS011;45234;48.148;17.128;2022-07-29T12:42:23;4.63;;;3.83;;
24739;SDS011;45234;48.148;17.128;2022-07-29T12:44:53;4.40;;;4.00;;
24739;SDS011;45234;48.148;17.128;2022-07-29T12:47:27;5.30;;;3.70;;
24739;SDS011;45234;48.148;17.128;2022-07-29T12:50:14;5.20;;;4.13;;
24739;SDS011;45234;48.148;17.128;2022-07-29T12:52:51;4.65;;;3.53;;
24739;SDS011;45234;48.148;17.128;2022-07-29T12:58:28;4.93;;;3.85;;
24739;SDS011;45234;48.148;17.128;2022-07-29T13:01:13;4.18;;;3.78;;
24739;SDS011;45234;48.148;17.128;2022-07-29T13:03:45;6.03;;;4.85;;
24739;SDS011;45234;48.148;17.128;2022-07-29T13:06:33;6.55;;;4.20;;
24739;SDS011;45234;48.148;17.128;2022-07-29T13:11:40;5.40;;;3.90;;
24739;SDS011;45234;48.148;17.128;2022-07-29T13:14:34;5.80;;;3.20;;
24739;SDS011;45234;48.148;17.128;2022-07-29T13:17:12;5.82;;;4.15;;
24739;SDS011;45234;48.148;17.128;2022-07-29T13:19:46;5.75;;;3.55;;
24739;SDS011;45234;48.148;17.128;2022-07-29T13:22:19;7.15;;;3.60;;
24739;SDS011;45234;48.148;17.128;2022-07-29T13:24:58;7.05;;;3.67;;
24739;SDS011;45234;48.148;17.128;2022-07-29T13:27:33;4.43;;;3.40;;
24739;SDS011;45234;48.148;17.128;2022-07-29T13:30:04;7.07;;;4.15;;
24739;SDS011;45234;48.148;17.128;2022-07-29T13:32:33;9.95;;;3.90;;
24739;SDS011;45234;48.148;17.128;2022-07-29T13:35:04;6.32;;;3.65;;
24739;SDS011;45234;48.148;17.128;2022-07-29T13:37:34;4.10;;;3.50;;
24739;SDS011;45234;48.148;17.128;2022-07-29T13:40:08;5.43;;;3.55;;
24739;SDS011;45234;48.148;17.128;2022-07-29T13:42:36;5.72;;;3.25;;
24739;SDS011;45234;48.148;17.128;2022-07-29T13:45:07;3.55;;;3.25;;
24739;SDS011;45234;48.148;17.128;2022-07-29T13:47:36;6.57;;;3.78;;
24739;SDS011;45234;48.148;17.128;2022-07-29T13:50:14;5.65;;;3.35;;
24739;SDS011;45234;48.148;17.128;2022-07-29T13:52:42;3.97;;;3.25;;
24739;SDS011;45234;48.148;17.128;2022-07-29T13:55:09;4.55;;;3.60;;
24739;SDS011;45234;48.148;17.128;2022-07-29T13:57:38;6.45;;;3.92;;
24739;SDS011;45234;48.148;17.128;2022-07-29T14:00:07;5.05;;;3.53;;
24739;SDS011;45234;48.148;17.128;2022-07-29T14:02:34;4.43;;;3.85;;
24739;SDS011;45234;48.148;17.128;2022-07-29T14:05:01;4.75;;;3.72;;
24739;SDS011;45234;48.148;17.128;2022-07-29T14:10:01;5.25;;;3.58;;
24739;SDS011;45234;48.148;17.128;2022-07-29T14:12:30;7.15;;;3.70;;
24739;SDS011;45234;48.148;17.128;2022-07-29T14:14:58;4.53;;;3.42;;
24739;SDS011;45234;48.148;17.128;2022-07-29T14:17:25;6.53;;;3.47;;
24739;SDS011;45234;48.148;17.128;2022-07-29T14:19:52;4.57;;;3.42;;
24739;SDS011;45234;48.148;17.128;2022-07-29T14:22:22;8.77;;;3.75;;
24739;SDS011;45234;48.148;17.128;2022-07-29T14:24:51;5.15;;;3.65;;
24739;SDS011;45234;48.148;17.128;2022-07-29T14:27:20;4.95;;;3.20;;
24739;SDS011;45234;48.148;17.128;2022-07-29T14:30:04;4.88;;;4.30;;
24739;SDS011;45234;48.148;17.128;2022-07-29T14:32:32;14.05;;;4.28;;
24739;SDS011;45234;48.148;17.128;2022-07-29T14:35:00;3.63;;;3.22;;
24739;SDS011;45234;48.148;17.128;2022-07-29T14:37:28;6.30;;;3.63;;
24739;SDS011;45234;48.148;17.128;2022-07-29T14:40:05;5.35;;;3.70;;
24739;SDS011;45234;48.148;17.128;2022-07-29T14:42:33;5.30;;;3.35;;
24739;SDS011;45234;48.148;17.128;2022-07-29T14:45:02;4.03;;;3.45;;
24739;SDS011;45234;48.148;17.128;2022-07-29T14:47:34;5.75;;;3.83;;
24739;SDS011;45234;48.148;17.128;2022-07-29T14:50:04;3.55;;;3.25;;
24739;SDS011;45234;48.148;17.128;2022-07-29T14:52:33;3.50;;;3.20;;
24739;SDS011;45234;48.148;17.128;2022-07-29T14:55:01;3.35;;;3.05;;
24739;SDS011;45234;48.148;17.128;2022-07-29T14:57:30;3.80;;;3.50;;
24739;SDS011;45234;48.148;17.128;2022-07-29T14:59:57;7.43;;;3.45;;
24739;SDS011;45234;48.148;17.128;2022-07-29T15:02:25;7.22;;;3.45;;
24739;SDS011;45234;48.148;17.128;2022-07-29T15:05:14;7.68;;;4.22;;
24739;SDS011;45234;48.148;17.128;2022-07-29T15:07:41;4.35;;;3.70;;
24739;SDS011;45234;48.148;17.128;2022-07-29T15:10:09;6.57;;;3.30;;
24739;SDS011;45234;48.148;17.128;2022-07-29T15:12:44;8.35;;;3.72;;
24739;SDS011;45234;48.148;17.128;2022-07-29T15:15:11;6.28;;;3.65;;
24739;SDS011;45234;48.148;17.128;2022-07-29T15:17:39;17.05;;;4.65;;
24739;SDS011;45234;48.148;17.128;2022-07-29T15:20:09;5.45;;;3.63;;
24739;SDS011;45234;48.148;17.128;2022-07-29T15:22:37;8.68;;;4.07;;
24739;SDS011;45234;48.148;17.128;2022-07-29T15:25:07;7.82;;;4.53;;
24739;SDS011;45234;48.148;17.128;2022-07-29T15:27:37;8.90;;;5.00;;
24739;SDS011;45234;48.148;17.128;2022-07-29T15:30:04;6.28;;;5.45;;
24739;SDS011;45234;48.148;17.128;2022-07-29T15:32:32;7.53;;;4.95;;
24739;SDS011;45234;48.148;17.128;2022-07-29T15:34:59;7.30;;;5.05;;
24739;SDS011;45234;48.148;17.128;2022-07-29T15:37:28;8.68;;;5.57;;
24739;SDS011;45234;48.148;17.128;2022-07-29T15:40:14;7.22;;;5.25;;
24739;SDS011;45234;48.148;17.128;2022-07-29T15:42:42;9.77;;;5.75;;
24739;SDS011;45234;48.148;17.128;2022-07-29T15:45:09;12.15;;;6.10;;
24739;SDS011;45234;48.148;17.128;2022-07-29T15:47:38;8.13;;;5.13;;
24739;SDS011;45234;48.148;17.128;2022-07-29T15:50:06;11.40;;;5.80;;
24739;SDS011;45234;48.148;17.128;2022-07-29T15:52:40;9.57;;;5.95;;
24739;SDS011;45234;48.148;17.128;2022-07-29T15:55:08;6.90;;;5.40;;
24739;SDS011;45234;48.148;17.128;2022-07-29T16:00:10;10.85;;;6.82;;
24739;SDS011;45234;48.148;17.128;2022-07-29T16:02:47;9.48;;;6.22;;
24739;SDS011;45234;48.148;17.128;2022-07-29T16:05:15;9.45;;;5.75;;
24739;SDS011;45234;48.148;17.128;2022-07-29T16:07:46;12.75;;;6.80;;
24739;SDS011;45234;48.148;17.128;2022-07-29T16:10:13;9.00;;;6.47;;
24739;SDS011;45234;48.148;17.128;2022-07-29T16:12:40;8.98;;;6.53;;
24739;SDS011;45234;48.148;17.128;2022-07-29T16:15:13;7.70;;;6.90;;
24739;SDS011;45234;48.148;17.128;2022-07-29T16:17:47;9.18;;;6.88;;
24739;SDS011;45234;48.148;17.128;2022-07-29T16:20:17;10.23;;;7.13;;
24739;SDS011;45234;48.148;17.128;2022-07-29T16:22:47;7.38;;;6.68;;